Time;durP1;ratioP1;P1;durP2;ratioP2;P2;SDS_P1;SDS_P2;PMS_P1;PMS_P2;Temp;Humidity;BMP_temperature;BMP_pressure;BME280_temperature;BME280_humidity;BME280_pressure;Samples;Min_cycle;Max_cycle;Signal;HPM_P1;HPM_P2
2022/09/06 00:01:08;;;;;;;5.82;3.58;;;;;;;16.63;100.00;96458.78;5038623;28;20492;-69
2022/09/06 00:03:35;;;;;;;4.53;2.95;;;;;;;16.47;100.00;96463.72;5039079;28;20619;-69
2022/09/06 00:06:07;;;;;;;3.92;2.92;;;;;;;16.64;100.00;96455.91;5038649;28;20223;-69
2022/09/06 00:08:33;;;;;;;5.40;3.00;;;;;;;16.21;100.00;96456.56;5039283;28;20315;-69
2022/09/06 00:11:01;;;;;;;5.22;3.13;;;;;;;16.23;100.00;96459.00;5038457;28;20217;-69
2022/09/06 00:13:28;;;;;;;5.07;3.65;;;;;;;16.31;100.00;96462.31;5038532;28;20206;-69
2022/09/06 00:15:54;;;;;;;9.10;3.45;;;;;;;16.33;100.00;96465.59;5038591;28;20229;-69
2022/09/06 00:18:21;;;;;;;4.43;2.58;;;;;;;16.29;100.00;96463.53;5038764;28;20205;-69
2022/09/06 00:20:47;;;;;;;6.63;3.33;;;;;;;16.14;100.00;96463.75;5038600;28;20221;-69
2022/09/06 00:23:14;;;;;;;7.78;2.85;;;;;;;16.14;100.00;96471.72;5037684;28;20208;-69
2022/09/06 00:25:41;;;;;;;5.78;3.17;;;;;;;16.10;100.00;96465.19;5038769;28;20212;-69
2022/09/06 00:28:09;;;;;;;5.13;3.50;;;;;;;16.25;100.00;96456.97;5038427;28;20201;-69
2022/09/06 00:30:35;;;;;;;5.43;3.17;;;;;;;16.19;100.00;96461.28;5039086;28;20202;-69
2022/09/06 00:33:02;;;;;;;7.30;3.30;;;;;;;15.95;100.00;96464.56;5037466;28;20205;-69
2022/09/06 00:35:28;;;;;;;7.45;3.03;;;;;;;16.12;100.00;96457.78;5039062;28;20208;-69
2022/09/06 00:37:59;;;;;;;5.20;3.20;;;;;;;16.11;100.00;96458.00;5037750;28;20271;-69
2022/09/06 00:40:28;;;;;;;4.47;2.78;;;;;;;15.95;100.00;96453.94;5037679;28;20221;-69
2022/09/06 00:42:54;;;;;;;4.10;2.88;;;;;;;16.01;100.00;96452.28;5036547;28;20208;-69
2022/09/06 00:45:23;;;;;;;6.25;3.40;;;;;;;15.90;100.00;96453.72;5039126;28;20212;-69
2022/09/06 00:47:51;;;;;;;6.18;3.55;;;;;;;15.90;100.00;96456.38;5038542;28;20284;-69
2022/09/06 00:50:19;;;;;;;7.25;3.55;;;;;;;15.94;100.00;96457.59;5038443;28;20578;-69
2022/09/06 00:52:48;;;;;;;5.88;3.60;;;;;;;16.02;100.00;96457.38;5037158;28;20209;-69
2022/09/06 00:55:15;;;;;;;7.43;3.63;;;;;;;15.84;100.00;96457.19;5036796;28;20208;-69
2022/09/06 00:57:42;;;;;;;5.22;3.40;;;;;;;15.77;100.00;96444.09;5038088;28;20232;-69
2022/09/06 01:00:09;;;;;;;7.10;3.70;;;;;;;15.88;100.00;96450.47;5037725;28;20578;-69
2022/09/06 01:02:37;;;;;;;5.25;3.05;;;;;;;15.93;100.00;96439.19;5037295;28;20205;-69
2022/09/06 01:05:05;;;;;;;5.13;3.35;;;;;;;15.84;100.00;96450.25;5037171;28;20213;-69
2022/09/06 01:07:47;;;;;;;4.22;3.10;;;;;;;15.94;100.00;96457.59;5037850;28;20790;-69
2022/09/06 01:10:32;;;;;;;4.82;3.40;;;;;;;15.95;100.00;96463.75;5037593;28;20685;-69
2022/09/06 01:13:07;;;;;;;4.95;3.35;;;;;;;15.94;100.00;96465.56;5036951;28;20747;-69
2022/09/06 01:15:42;;;;;;;6.07;3.20;;;;;;;15.91;100.00;96466.00;5037449;28;20292;-69
2022/09/06 01:18:23;;;;;;;6.90;3.45;;;;;;;15.73;100.00;96454.31;5037703;28;20665;-69
2022/09/06 01:21:02;;;;;;;5.28;3.47;;;;;;;15.74;100.00;96445.31;5036974;28;20236;-69
2022/09/06 01:23:59;;;;;;;5.93;3.80;;;;;;;15.84;100.00;96445.75;5037327;28;20201;-69
2022/09/06 01:26:54;;;;;;;5.60;4.15;;;;;;;15.80;100.00;96449.84;5037421;28;20229;-69
2022/09/06 01:29:33;;;;;;;7.57;4.25;;;;;;;15.84;100.00;96459.84;5034180;28;20212;-69
2022/09/06 01:32:09;;;;;;;8.77;3.78;;;;;;;15.92;100.00;96469.47;5036854;28;20849;-69
2022/09/06 01:34:43;;;;;;;4.70;3.30;;;;;;;15.86;100.00;96460.47;5037276;28;20239;-69
2022/09/06 01:37:12;;;;;;;5.15;3.05;;;;;;;15.80;100.00;96465.78;5037349;28;20713;-69
2022/09/06 01:39:41;;;;;;;5.38;3.42;;;;;;;15.68;100.00;96464.75;5037261;28;20198;-69
2022/09/06 01:42:10;;;;;;;5.75;3.47;;;;;;;15.51;100.00;96466.13;5035956;28;20236;-69
2022/09/06 01:44:43;;;;;;;5.40;3.63;;;;;;;15.54;100.00;96470.22;5035773;28;20669;-69
2022/09/06 01:47:21;;;;;;;9.90;3.35;;;;;;;15.70;100.00;96467.22;5036964;28;20701;-69
2022/09/06 01:50:01;;;;;;;5.35;3.80;;;;;;;15.70;100.00;96473.31;5036465;28;20217;-69
2022/09/06 01:52:35;;;;;;;6.78;3.30;;;;;;;15.66;100.00;96484.56;5036400;28;20201;-69
2022/09/06 01:55:16;;;;;;;8.23;3.88;;;;;;;15.74;100.00;96484.38;5036281;28;20212;-69
2022/09/06 01:57:56;;;;;;;5.57;3.40;;;;;;;15.65;100.00;96493.56;5037569;28;20220;-69
2022/09/06 02:00:25;;;;;;;4.72;3.30;;;;;;;15.60;100.00;96486.19;5035801;28;20224;-69
2022/09/06 02:03:06;;;;;;;5.95;3.80;;;;;;;15.71;100.00;96482.13;5035437;28;20560;-69
2022/09/06 02:05:38;;;;;;;9.45;4.25;;;;;;;15.71;100.00;96487.44;5036897;28;20205;-69
2022/09/06 02:08:10;;;;;;;9.50;4.20;;;;;;;15.72;100.00;96481.09;5037546;28;20205;-69
2022/09/06 02:10:43;;;;;;;8.40;3.72;;;;;;;15.66;100.00;96484.56;5036517;28;20691;-69
2022/09/06 02:13:11;;;;;;;6.28;4.22;;;;;;;15.71;100.00;96482.13;5035429;28;20205;-69
2022/09/06 02:15:45;;;;;;;5.80;3.35;;;;;;;15.77;100.00;96490.09;5037092;28;20201;-69
2022/09/06 02:18:16;;;;;;;5.75;3.70;;;;;;;15.77;100.00;96487.44;5036195;28;20209;-69
2022/09/06 02:20:47;;;;;;;5.40;3.55;;;;;;;15.82;100.00;96481.50;5036594;28;20732;-69
2022/09/06 02:23:16;;;;;;;7.75;3.20;;;;;;;15.69;100.00;96478.84;5036118;28;20239;-69
2022/09/06 02:25:47;;;;;;;5.47;3.20;;;;;;;15.57;100.00;96485.78;5036820;28;20212;-69
2022/09/06 02:28:14;;;;;;;7.47;4.15;;;;;;;15.42;100.00;96477.97;5036645;28;20197;-69
2022/09/06 02:30:45;;;;;;;7.68;3.70;;;;;;;15.48;100.00;96484.34;5033715;28;20205;-69
2022/09/06 02:33:16;;;;;;;5.45;3.55;;;;;;;15.46;100.00;96491.66;5035181;28;20212;-69
2022/09/06 02:35:45;;;;;;;6.50;4.10;;;;;;;15.45;100.00;96490.03;5036888;28;20201;-69
2022/09/06 02:38:11;;;;;;;8.15;3.60;;;;;;;15.28;100.00;96486.91;5036051;28;20224;-69
2022/09/06 02:40:38;;;;;;;5.82;3.40;;;;;;;15.31;100.00;96488.34;5036182;28;20228;-69
2022/09/06 02:43:05;;;;;;;4.32;3.03;;;;;;;15.27;100.00;96490.59;5034924;28;20712;-69
2022/09/06 02:45:31;;;;;;;5.72;3.90;;;;;;;15.34;100.00;96490.63;5037028;28;20209;-69
2022/09/06 02:47:59;;;;;;;6.85;3.67;;;;;;;15.38;100.00;96481.25;5035910;28;20244;-69
2022/09/06 02:50:25;;;;;;;9.88;3.40;;;;;;;15.29;100.00;96477.13;5036411;28;20197;-69
2022/09/06 02:53:02;;;;;;;7.90;3.53;;;;;;;15.39;100.00;96477.56;5034567;28;20240;-69
2022/09/06 02:55:28;;;;;;;7.90;3.72;;;;;;;15.29;100.00;96475.28;5036484;28;20319;-69
2022/09/06 02:57:54;;;;;;;5.45;3.78;;;;;;;15.35;100.00;96476.31;5035879;28;20224;-69
2022/09/06 03:00:21;;;;;;;8.05;4.25;;;;;;;15.29;100.00;96469.16;5036177;28;20212;-69
2022/09/06 03:02:48;;;;;;;7.63;4.43;;;;;;;15.32;100.00;96466.09;5039225;28;20201;-69
2022/09/06 03:05:15;;;;;;;11.95;4.00;;;;;;;15.38;100.00;96466.09;5040326;28;20201;-69
2022/09/06 03:07:42;;;;;;;8.13;3.65;;;;;;;15.28;100.00;96462.22;5040402;28;20243;-69
2022/09/06 03:10:09;;;;;;;6.75;3.63;;;;;;;15.37;100.00;96467.13;5040048;28;20201;-69
2022/09/06 03:12:36;;;;;;;5.47;3.35;;;;;;;15.36;100.00;96465.50;5039209;28;20193;-69
2022/09/06 03:15:03;;;;;;;4.85;3.33;;;;;;;15.31;100.00;96459.16;5039618;28;20669;-69
2022/09/06 03:17:29;;;;;;;5.05;3.30;;;;;;;15.20;100.00;96459.72;5040727;28;20229;-69
2022/09/06 03:19:55;;;;;;;6.82;3.38;;;;;;;15.23;100.00;96455.88;5039720;28;20681;-69
2022/09/06 03:22:23;;;;;;;4.03;2.80;;;;;;;15.25;100.00;96457.31;5038544;28;20228;-69
2022/09/06 03:24:50;;;;;;;7.05;3.58;;;;;;;15.11;100.00;96452.94;5039441;28;20689;-69
2022/09/06 03:27:16;;;;;;;5.75;3.78;;;;;;;15.16;100.00;96458.47;5040108;28;20224;-69
2022/09/06 03:29:42;;;;;;;10.02;4.50;;;;;;;15.17;100.00;96460.09;5039579;28;20197;-69
2022/09/06 03:32:09;;;;;;;6.20;3.65;;;;;;;15.14;100.00;96455.19;5038084;28;20201;-69
2022/09/06 03:34:35;;;;;;;7.50;3.78;;;;;;;15.14;100.00;96454.38;5039310;28;20223;-69
2022/09/06 03:37:02;;;;;;;5.22;3.40;;;;;;;15.17;100.00;96452.13;5039761;28;20225;-69
2022/09/06 03:39:29;;;;;;;6.40;3.63;;;;;;;15.29;100.00;96447.91;5039328;28;20205;-69
2022/09/06 03:41:56;;;;;;;7.85;3.85;;;;;;;15.17;100.00;96446.81;5039742;28;21030;-69
2022/09/06 03:44:22;;;;;;;5.95;3.63;;;;;;;15.07;100.00;96446.41;5038750;28;20208;-69
2022/09/06 03:46:50;;;;;;;4.95;3.30;;;;;;;15.01;100.00;96431.25;5039411;28;20225;-69
2022/09/06 03:49:16;;;;;;;7.20;4.10;;;;;;;15.01;100.00;96435.75;5039297;28;20399;-69
2022/09/06 03:51:43;;;;;;;6.07;3.40;;;;;;;15.03;100.00;96429.25;5039508;28;20283;-69
2022/09/06 03:54:09;;;;;;;4.72;3.67;;;;;;;15.04;100.00;96430.84;5037887;28;20197;-69
2022/09/06 03:56:37;;;;;;;5.85;3.53;;;;;;;15.15;100.00;96432.09;5039267;28;21228;-69
2022/09/06 03:59:04;;;;;;;4.80;3.65;;;;;;;15.07;100.00;96433.13;5039251;28;20205;-69
2022/09/06 04:01:30;;;;;;;6.30;3.75;;;;;;;14.95;100.00;96440.00;5039591;28;20217;-69
2022/09/06 04:03:56;;;;;;;9.75;4.07;;;;;;;15.00;100.00;96444.75;5037974;28;20209;-69
2022/09/06 04:06:23;;;;;;;7.07;3.60;;;;;;;14.98;100.00;96455.56;5039111;28;20704;-69
2022/09/06 04:08:49;;;;;;;5.68;3.55;;;;;;;14.91;100.00;96462.66;5039209;28;20205;-69
2022/09/06 04:11:16;;;;;;;9.85;4.15;;;;;;;14.89;100.00;96477.97;5038807;28;20212;-69
2022/09/06 04:13:44;;;;;;;9.48;4.18;;;;;;;15.01;100.00;96475.56;5038615;28;21518;-69
2022/09/06 04:16:10;;;;;;;7.97;4.43;;;;;;;14.95;100.00;96477.16;5038654;28;20586;-69
2022/09/06 04:18:37;;;;;;;6.93;4.53;;;;;;;15.02;100.00;96475.38;5038320;28;20228;-69
2022/09/06 04:21:03;;;;;;;12.25;4.32;;;;;;;15.02;100.00;96485.97;5038367;28;20229;-69
2022/09/06 04:23:30;;;;;;;10.75;4.90;;;;;;;15.15;100.00;96485.19;5038458;28;20201;-69
2022/09/06 04:25:58;;;;;;;9.18;5.25;;;;;;;15.05;100.00;96513.97;5037970;28;20232;-69
2022/09/06 04:28:25;;;;;;;7.93;4.28;;;;;;;14.49;100.00;96551.41;5038663;28;20224;-69
2022/09/06 04:30:54;;;;;;;8.25;4.55;;;;;;;14.59;100.00;96528.81;5039247;28;20707;-69
2022/09/06 04:33:24;;;;;;;12.77;5.32;;;;;;;14.66;100.00;96572.94;5038371;28;20205;-69
2022/09/06 04:35:51;;;;;;;11.48;5.78;;;;;;;14.79;100.00;96550.97;5038172;28;20205;-69
2022/09/06 04:38:17;;;;;;;13.10;5.80;;;;;;;14.94;100.00;96571.09;5039187;28;20202;-70
2022/09/06 04:40:44;;;;;;;18.95;5.68;;;;;;;15.11;100.00;96571.56;5038445;28;20558;-69
2022/09/06 04:43:11;;;;;;;12.23;5.88;;;;;;;15.28;100.00;96565.75;5037429;28;20225;-69
2022/09/06 04:45:37;;;;;;;12.88;6.88;;;;;;;15.29;100.00;96549.63;5038608;28;20205;-69
2022/09/06 04:48:05;;;;;;;14.73;6.85;;;;;;;15.51;100.00;96539.69;5037919;28;20213;-69
2022/09/06 04:50:31;;;;;;;13.95;7.20;;;;;;;15.51;100.00;96529.06;5038181;28;20201;-69
2022/09/06 04:52:58;;;;;;;11.20;6.72;;;;;;;15.60;100.00;96549.94;5037972;28;20273;-69
2022/09/06 04:55:25;;;;;;;16.33;7.18;;;;;;;15.60;100.00;96555.25;5038136;28;20956;-69
2022/09/06 04:57:51;;;;;;;16.48;7.25;;;;;;;15.58;100.00;96575.91;5037507;28;20315;-69
2022/09/06 05:00:18;;;;;;;13.90;7.03;;;;;;;15.65;100.00;96573.25;5038338;28;20197;-69
2022/09/06 05:02:45;;;;;;;20.02;7.55;;;;;;;15.66;100.00;96585.53;5037600;28;20216;-70
2022/09/06 05:05:12;;;;;;;16.55;7.63;;;;;;;15.59;100.00;96564.25;5037743;28;20208;-70
2022/09/06 05:07:39;;;;;;;12.65;6.93;;;;;;;15.64;100.00;96537.06;5037867;28;20588;-69
2022/09/06 05:10:06;;;;;;;18.13;8.50;;;;;;;15.77;100.00;96498.09;5038262;28;20205;-70
2022/09/06 05:12:32;;;;;;;16.23;8.85;;;;;;;15.72;100.00;96489.06;5036760;28;20197;-69
2022/09/06 05:14:58;;;;;;;21.55;10.75;;;;;;;15.88;100.00;96493.00;5037421;28;20212;-70
2022/09/06 05:17:25;;;;;;;26.42;12.82;;;;;;;15.92;100.00;96491.56;5037866;28;20221;-70
2022/09/06 05:19:51;;;;;;;26.58;12.07;;;;;;;15.93;100.00;96485.19;5038073;28;20216;-70
2022/09/06 05:22:19;;;;;;;29.05;12.32;;;;;;;15.97;100.00;96481.13;5036490;28;20225;-70
2022/09/06 05:24:46;;;;;;;25.25;11.88;;;;;;;15.95;100.00;96490.34;5036951;28;20197;-70
2022/09/06 05:27:13;;;;;;;23.90;11.43;;;;;;;16.07;100.00;96491.34;5037439;28;20229;-70
2022/09/06 05:29:39;;;;;;;28.33;12.95;;;;;;;16.20;100.00;96499.31;5037158;28;20218;-70
2022/09/06 05:32:06;;;;;;;26.80;12.77;;;;;;;16.26;100.00;96509.19;5037675;28;20205;-70
2022/09/06 05:34:32;;;;;;;26.52;12.98;;;;;;;16.40;100.00;96505.50;5037160;28;20223;-70
2022/09/06 05:36:59;;;;;;;30.00;13.85;;;;;;;16.49;100.00;96507.72;5037135;28;20602;-70
2022/09/06 05:39:27;;;;;;;28.23;13.98;;;;;;;16.66;100.00;96515.06;5037440;28;20247;-70
2022/09/06 05:41:53;;;;;;;33.25;14.85;;;;;;;16.67;100.00;96508.69;5037175;28;20224;-70
2022/09/06 05:44:19;;;;;;;37.03;16.42;;;;;;;16.74;100.00;96517.50;5036564;28;20201;-70
2022/09/06 05:46:46;;;;;;;28.15;14.63;;;;;;;16.86;100.00;96518.50;5037497;28;20312;-70
2022/09/06 05:49:13;;;;;;;29.52;14.55;;;;;;;16.95;100.00;96519.09;5036981;28;20565;-70
2022/09/06 05:51:40;;;;;;;29.90;14.15;;;;;;;16.96;100.00;96518.06;5037332;28;20227;-70
2022/09/06 05:54:07;;;;;;;32.38;14.75;;;;;;;17.01;100.00;96520.94;5036327;28;20205;-70
2022/09/06 05:56:35;;;;;;;33.03;16.15;;;;;;;17.04;100.00;96515.19;5036818;28;20285;-70
2022/09/06 05:59:03;;;;;;;37.58;17.63;;;;;;;17.05;100.00;96525.63;5036802;28;20231;-70
2022/09/06 06:01:30;;;;;;;31.98;15.23;;;;;;;17.12;100.00;96519.25;5037027;28;20203;-70
2022/09/06 06:03:59;;;;;;;25.02;14.35;;;;;;;17.12;100.00;96524.56;5035874;28;20688;-70
2022/09/06 06:06:27;;;;;;;28.50;14.15;;;;;;;17.13;100.00;96525.38;5036574;28;20310;-70
2022/09/06 06:08:54;;;;;;;32.00;15.07;;;;;;;17.11;100.00;96528.25;5036572;28;20215;-70
2022/09/06 06:11:20;;;;;;;29.40;14.85;;;;;;;17.19;100.00;96535.19;5037086;28;20208;-70
2022/09/06 06:13:49;;;;;;;29.17;15.68;;;;;;;17.38;100.00;96537.81;5036306;28;20248;-70
2022/09/06 06:16:17;;;;;;;28.60;14.18;;;;;;;17.47;100.00;96551.72;5036564;28;20217;-70
2022/09/06 06:18:45;;;;;;;24.05;13.57;;;;;;;17.52;100.00;96543.91;5036771;28;20232;-70
2022/09/06 06:21:13;;;;;;;23.77;12.18;;;;;;;17.67;100.00;96539.94;5036022;28;20228;-70
2022/09/06 06:23:40;;;;;;;19.30;10.80;;;;;;;17.60;100.00;96539.13;5036080;28;20235;-70
2022/09/06 06:26:08;;;;;;;18.30;10.18;;;;;;;17.81;100.00;96541.50;5035746;28;20228;-70
2022/09/06 06:28:35;;;;;;;17.92;10.10;;;;;;;17.88;100.00;96542.25;5036159;28;20201;-70
2022/09/06 06:31:03;;;;;;;14.63;9.32;;;;;;;18.07;100.00;96544.81;5036281;28;20205;-70
2022/09/06 06:33:30;;;;;;;15.13;8.93;;;;;;;17.93;100.00;96539.78;5036105;28;20615;-70
2022/09/06 06:35:58;;;;;;;16.55;8.88;;;;;;;18.05;100.00;96548.72;5035534;28;20228;-70
2022/09/06 06:38:29;;;;;;;12.60;8.07;;;;;;;17.97;100.00;96543.66;5036537;28;20201;-70
2022/09/06 06:40:56;;;;;;;13.55;8.20;;;;;;;17.93;100.00;96556.59;5036847;28;20197;-70
2022/09/06 06:43:22;;;;;;;15.05;9.25;;;;;;;18.01;100.00;96563.50;5035498;28;20311;-70
2022/09/06 06:45:49;;;;;;;15.88;8.95;;;;;;;17.99;100.00;96565.59;5035473;28;20205;-70
2022/09/06 06:48:17;;;;;;;12.07;7.70;;;;;;;18.15;100.00;96570.41;5036974;28;20237;-70
2022/09/06 06:50:44;;;;;;;11.77;7.72;;;;;;;18.19;100.00;96575.13;5036354;28;20216;-69
2022/09/06 06:53:10;;;;;;;14.05;8.13;;;;;;;18.19;100.00;96566.31;5036508;28;21055;-67
2022/09/06 06:55:37;;;;;;;18.40;8.85;;;;;;;18.29;100.00;96561.31;5036164;28;20197;-71
2022/09/06 06:58:03;;;;;;;11.93;8.05;;;;;;;18.28;100.00;96555.16;5036337;28;20386;-71
2022/09/06 07:00:30;;;;;;;14.75;8.68;;;;;;;18.36;100.00;96565.56;5035677;28;20728;-71
2022/09/06 07:02:58;;;;;;;15.50;8.07;;;;;;;18.36;100.00;96558.38;5035111;28;20225;-71
2022/09/06 07:05:26;;;;;;;14.57;8.13;;;;;;;18.68;100.00;96556.47;5036197;28;20201;-71
2022/09/06 07:07:52;;;;;;;14.68;8.48;;;;;;;18.73;100.00;96549.44;5035935;28;20308;-71
2022/09/06 07:10:18;;;;;;;14.50;8.02;;;;;;;18.83;100.00;96544.41;5035998;28;20208;-71
2022/09/06 07:12:45;;;;;;;16.88;8.95;;;;;;;19.12;100.00;96533.06;5035890;28;20715;-71
2022/09/06 07:15:11;;;;;;;15.77;8.68;;;;;;;19.22;100.00;96528.00;5035867;28;20198;-71
2022/09/06 07:17:38;;;;;;;13.00;7.63;;;;;;;19.22;100.00;96539.50;5035684;28;20225;-70
2022/09/06 07:20:05;;;;;;;14.07;7.30;;;;;;;19.74;100.00;96544.19;5035748;28;20590;-70
2022/09/06 07:22:33;;;;;;;10.73;6.32;;;;;;;19.87;100.00;96550.19;5035795;28;20217;-70
2022/09/06 07:25:00;;;;;;;10.30;7.00;;;;;;;19.89;100.00;96550.78;5035460;28;20579;-70
2022/09/06 07:27:26;;;;;;;11.85;5.82;;;;;;;20.09;100.00;96555.91;5035374;28;20221;-70
2022/09/06 07:29:53;;;;;;;11.45;6.20;;;;;;;20.33;100.00;96555.75;5035533;28;20582;-70
2022/09/06 07:32:19;;;;;;;13.20;7.50;;;;;;;20.56;100.00;96561.94;5035244;28;20200;-70
2022/09/06 07:34:46;;;;;;;13.38;6.72;;;;;;;20.50;100.00;96562.06;5035577;28;20212;-70
2022/09/06 07:37:12;;;;;;;14.32;7.65;;;;;;;20.37;100.00;96567.63;5036055;28;20217;-70
2022/09/06 07:39:40;;;;;;;13.07;7.32;;;;;;;20.36;100.00;96572.13;5035970;28;20197;-70
2022/09/06 07:42:07;;;;;;;12.45;7.20;;;;;;;20.27;100.00;96572.69;5034821;28;20274;-70
2022/09/06 07:44:33;;;;;;;11.27;6.30;;;;;;;20.30;100.00;96567.72;5035552;28;20211;-69
2022/09/06 07:47:01;;;;;;;9.88;5.93;;;;;;;20.60;100.00;96559.63;5035110;28;20236;-70
2022/09/06 07:49:28;;;;;;;12.85;7.00;;;;;;;20.80;100.00;96557.44;5038574;28;20804;-70
2022/09/06 07:51:55;;;;;;;11.98;6.93;;;;;;;20.98;100.00;96553.63;5038464;28;20271;-70
2022/09/06 07:54:22;;;;;;;13.57;7.40;;;;;;;21.02;100.00;96560.13;5039739;28;20244;-70
2022/09/06 07:56:49;;;;;;;14.02;7.05;;;;;;;21.15;100.00;96551.84;5038579;28;20604;-70
2022/09/06 07:59:16;;;;;;;9.57;5.50;;;;;;;21.00;100.00;96553.38;5038344;28;20209;-70
2022/09/06 08:01:43;;;;;;;13.70;7.90;;;;;;;21.19;100.00;96553.00;5039328;28;20692;-70
2022/09/06 08:04:12;;;;;;;10.82;6.47;;;;;;;21.39;100.00;96548.09;5038316;28;20221;-70
2022/09/06 08:06:40;;;;;;;13.68;6.30;;;;;;;21.40;100.00;96538.16;5038905;28;20251;-70
2022/09/06 08:09:09;;;;;;;10.73;5.20;;;;;;;21.65;99.60;96537.69;5038947;28;20205;-70
2022/09/06 08:11:36;;;;;;;10.15;6.65;;;;;;;21.67;100.00;96548.19;5038559;28;20202;-70
2022/09/06 08:14:06;;;;;;;13.48;6.03;;;;;;;21.82;100.00;96545.81;5037907;28;20205;-70
2022/09/06 08:16:34;;;;;;;10.15;5.80;;;;;;;21.89;100.00;96538.41;5039098;28;20232;-70
2022/09/06 08:19:03;;;;;;;7.72;5.32;;;;;;;22.02;100.00;96536.28;5039069;28;20402;-70
2022/09/06 08:21:31;;;;;;;10.40;5.97;;;;;;;22.12;100.00;96526.53;5038778;28;20764;-70
2022/09/06 08:24:00;;;;;;;11.02;5.45;;;;;;;22.25;100.00;96528.06;5037670;28;20236;-70
2022/09/06 08:26:28;;;;;;;7.05;4.35;;;;;;;22.34;98.96;96527.47;5036680;28;20225;-70
2022/09/06 08:28:57;;;;;;;9.70;4.63;;;;;;;22.22;99.58;96524.03;5037712;28;20209;-70
2022/09/06 08:31:25;;;;;;;12.43;4.55;;;;;;;22.42;99.63;96524.38;5037510;28;20748;-70
2022/09/06 08:33:52;;;;;;;9.38;4.30;;;;;;;22.38;95.77;96525.13;5037357;28;20201;-70
2022/09/06 08:36:19;;;;;;;5.03;3.40;;;;;;;22.34;100.00;96516.75;5038016;28;20225;-70
2022/09/06 08:38:46;;;;;;;6.18;4.00;;;;;;;22.51;95.47;96527.50;5036614;28;20201;-70
2022/09/06 08:41:23;;;;;;;9.93;3.92;;;;;;;22.55;99.76;96529.44;5037688;28;20201;-70
2022/09/06 08:43:54;;;;;;;9.02;3.85;;;;;;;22.49;95.30;96525.06;5036292;28;20221;-70
2022/09/06 08:46:27;;;;;;;7.07;3.97;;;;;;;22.47;100.00;96521.78;5037195;28;20220;-70
2022/09/06 08:48:54;;;;;;;5.45;3.53;;;;;;;22.46;92.66;96509.41;5036892;28;20245;-70
2022/09/06 08:51:46;;;;;;;11.38;3.40;;;;;;;22.62;94.51;96523.91;5037483;28;20206;-70
2022/09/06 08:54:21;;;;;;;8.23;3.28;;;;;;;22.65;92.47;96518.88;5036435;28;20197;-70
2022/09/06 08:57:02;;;;;;;9.15;3.60;;;;;;;23.06;87.99;96526.50;5037121;28;20224;-70
2022/09/06 08:59:35;;;;;;;4.85;2.70;;;;;;;23.06;86.42;96518.44;5036803;28;20217;-70
2022/09/06 09:02:12;;;;;;;5.85;3.15;;;;;;;23.40;88.35;96510.84;5035541;28;20216;-70
2022/09/06 09:04:42;;;;;;;4.05;2.47;;;;;;;23.46;83.78;96509.06;5035368;28;20240;-70
2022/09/06 09:07:22;;;;;;;4.60;2.80;;;;;;;23.71;86.56;96504.81;5036252;28;20221;-70
2022/09/06 09:09:50;;;;;;;7.13;2.92;;;;;;;23.96;87.91;96505.09;5035728;28;20201;-70
2022/09/06 09:12:22;;;;;;;6.70;2.78;;;;;;;23.73;85.70;96491.91;5036820;28;20209;-70
2022/09/06 09:14:53;;;;;;;5.53;2.88;;;;;;;24.01;81.89;96497.06;5036312;28;20726;-70
2022/09/06 09:17:26;;;;;;;4.32;2.67;;;;;;;23.95;86.51;96490.00;5036984;28;20225;-70
2022/09/06 09:19:52;;;;;;;6.18;2.33;;;;;;;23.96;80.84;96480.88;5036221;28;20209;-70
2022/09/06 09:22:19;;;;;;;4.93;2.63;;;;;;;24.27;85.10;96475.50;5036107;28;20201;-70
2022/09/06 09:24:50;;;;;;;5.65;2.17;;;;;;;24.37;83.86;96480.97;5035902;28;20992;-71
2022/09/06 09:27:20;;;;;;;5.35;2.35;;;;;;;24.23;81.29;96484.34;5036629;28;20217;-71
2022/09/06 09:30:01;;;;;;;4.72;2.55;;;;;;;24.54;82.25;96475.50;5036227;28;20728;-71
2022/09/06 09:32:34;;;;;;;6.78;2.03;;;;;;;24.53;80.88;96477.38;5035038;28;20220;-71
2022/09/06 09:35:32;;;;;;;3.78;1.92;;;;;;;24.68;76.89;96477.47;5036059;28;20237;-71
2022/09/06 09:38:03;;;;;;;6.18;2.13;;;;;;;24.36;77.38;96481.25;5036548;28;20221;-71
2022/09/06 09:40:33;;;;;;;4.63;2.15;;;;;;;24.28;75.52;96481.72;5035873;28;20205;-70
2022/09/06 09:43:16;;;;;;;3.95;2.15;;;;;;;24.39;76.69;96486.13;5035420;28;20225;-70
2022/09/06 09:45:43;;;;;;;5.25;2.13;;;;;;;24.34;76.81;96483.41;5036050;28;20231;-70
2022/09/06 09:48:20;;;;;;;5.90;1.67;;;;;;;24.33;76.58;96482.56;5035414;28;20208;-70
2022/09/06 09:50:48;;;;;;;3.90;1.88;;;;;;;24.03;75.86;96481.47;5036157;28;20201;-70
2022/09/06 09:53:17;;;;;;;3.65;2.20;;;;;;;24.13;76.50;96485.09;5034605;28;20804;-70
2022/09/06 09:55:44;;;;;;;8.68;2.22;;;;;;;24.12;77.93;96479.94;5035539;28;20197;-70
2022/09/06 09:58:30;;;;;;;7.55;2.40;;;;;;;24.50;76.75;96471.69;5034290;28;20949;-70
2022/09/06 10:01:16;;;;;;;3.42;2.15;;;;;;;24.90;79.86;96467.41;5035334;28;20211;-70
2022/09/06 10:03:44;;;;;;;7.25;2.35;;;;;;;24.76;73.25;96469.72;5035078;28;20221;-70
2022/09/06 10:06:13;;;;;;;5.10;2.35;;;;;;;24.76;74.93;96461.66;5035316;28;20228;-70
2022/09/06 10:08:42;;;;;;;7.47;2.50;;;;;;;24.68;78.90;96464.84;5035850;28;20208;-70
2022/09/06 10:11:12;;;;;;;5.38;2.35;;;;;;;25.04;74.09;96458.59;5034304;28;20255;-70
2022/09/06 10:13:40;;;;;;;5.93;2.20;;;;;;;24.82;75.98;96459.78;5035696;28;20263;-70
2022/09/06 10:16:07;;;;;;;5.90;2.58;;;;;;;25.11;73.49;96458.38;5036342;28;20240;-70
2022/09/06 10:18:36;;;;;;;4.97;1.80;;;;;;;25.33;73.49;96460.66;5036666;28;20223;-70
2022/09/06 10:21:06;;;;;;;3.55;2.25;;;;;;;25.35;72.69;96455.81;5035958;28;20209;-70
2022/09/06 10:23:44;;;;;;;5.47;2.50;;;;;;;25.53;72.97;96443.72;5037103;28;20267;-70
2022/09/06 10:26:18;;;;;;;5.25;2.50;;;;;;;25.81;73.90;96437.91;5036271;28;20225;-70
2022/09/06 10:28:45;;;;;;;5.55;2.60;;;;;;;25.90;75.05;96440.66;5035899;28;20653;-70
2022/09/06 10:31:47;;;;;;;8.13;2.40;;;;;;;25.85;69.67;96450.59;5035782;28;20257;-70
2022/09/06 10:34:27;;;;;;;7.35;2.22;;;;;;;25.76;71.70;96440.59;5035558;28;20200;-70
2022/09/06 10:37:06;;;;;;;6.30;2.42;;;;;;;26.10;71.65;96437.16;5035929;28;20236;-70
2022/09/06 10:39:45;;;;;;;7.82;2.15;;;;;;;26.06;70.27;96444.19;5036052;28;20207;-70
2022/09/06 10:42:21;;;;;;;6.18;2.10;;;;;;;26.27;70.32;96448.50;5036020;28;20205;-70
2022/09/06 10:45:02;;;;;;;7.60;2.60;;;;;;;26.46;71.23;96443.16;5035957;28;20227;-70
2022/09/06 10:47:37;;;;;;;5.57;2.53;;;;;;;26.52;73.21;96443.97;5036067;28;20227;-70
2022/09/06 10:50:05;;;;;;;4.20;1.98;;;;;;;26.75;70.86;96440.69;5035949;28;20980;-70
2022/09/06 10:52:39;;;;;;;13.00;2.92;;;;;;;26.97;72.37;96433.91;5035430;28;20203;-70
2022/09/06 10:55:10;;;;;;;6.97;2.40;;;;;;;27.22;67.12;96433.84;5036320;28;20201;-70
2022/09/06 10:57:42;;;;;;;11.45;2.22;;;;;;;27.04;67.82;96428.22;5036149;28;20232;-70
2022/09/06 11:00:12;;;;;;;6.68;2.60;;;;;;;27.14;68.63;96424.41;5032650;28;20205;-70
2022/09/06 11:02:43;;;;;;;6.60;2.05;;;;;;;26.94;66.55;96425.53;5034467;28;20205;-70
2022/09/06 11:05:12;;;;;;;3.13;2.00;;;;;;;26.83;70.50;96423.91;5034711;28;20229;-70
2022/09/06 11:07:43;;;;;;;7.47;2.58;;;;;;;26.81;69.43;96417.97;5034723;28;20220;-70
2022/09/06 11:10:18;;;;;;;4.55;2.10;;;;;;;26.52;70.29;96415.03;5034526;28;20201;-70
2022/09/06 11:12:50;;;;;;;6.22;2.55;;;;;;;26.48;69.06;96418.56;5034877;28;20201;-70
2022/09/06 11:15:20;;;;;;;11.80;2.33;;;;;;;26.46;68.70;96426.09;5035119;28;20692;-70
2022/09/06 11:17:52;;;;;;;9.43;2.35;;;;;;;26.52;70.34;96419.63;5035320;28;20229;-70
2022/09/06 11:20:26;;;;;;;9.18;2.60;;;;;;;26.42;71.40;96422.34;5034190;28;20347;-70
2022/09/06 11:23:23;;;;;;;6.65;2.40;;;;;;;26.53;70.47;96426.66;5036020;28;20303;-71
2022/09/06 11:26:09;;;;;;;6.75;2.20;;;;;;;26.66;69.57;96426.09;5039378;28;20205;-70
2022/09/06 11:28:39;;;;;;;9.55;2.42;;;;;;;26.34;72.45;96417.47;5037466;28;20406;-71
2022/09/06 11:31:10;;;;;;;8.75;2.42;;;;;;;26.30;71.56;96418.25;5038643;28;20211;-71
2022/09/06 11:33:38;;;;;;;7.80;2.67;;;;;;;26.14;72.67;96416.63;5037751;28;20949;-70
2022/09/06 11:36:27;;;;;;;7.20;2.20;;;;;;;26.28;69.87;96415.81;5039751;28;20252;-71